sensor_id;sensor_type;location;lat;lon;timestamp;P1;durP1;ratioP1;P2;durP2;ratioP2
50267;SDS011;36153;50.960;6.220;2023-03-23T00:02:28;3.85;;;2.03;;
50267;SDS011;36153;50.960;6.220;2023-03-23T00:05:36;4.47;;;1.80;;
50267;SDS011;36153;50.960;6.220;2023-03-23T00:08:41;4.10;;;1.55;;
50267;SDS011;36153;50.960;6.220;2023-03-23T00:11:46;3.05;;;2.00;;
50267;SDS011;36153;50.960;6.220;2023-03-23T00:14:48;4.63;;;1.80;;
50267;SDS011;36153;50.960;6.220;2023-03-23T00:17:54;3.90;;;1.58;;
50267;SDS011;36153;50.960;6.220;2023-03-23T00:21:03;2.72;;;1.60;;
50267;SDS011;36153;50.960;6.220;2023-03-23T00:24:18;4.28;;;2.13;;
50267;SDS011;36153;50.960;6.220;2023-03-23T00:27:20;6.00;;;2.10;;
50267;SDS011;36153;50.960;6.220;2023-03-23T00:30:22;3.88;;;1.63;;
50267;SDS011;36153;50.960;6.220;2023-03-23T00:33:28;2.13;;;1.48;;
50267;SDS011;36153;50.960;6.220;2023-03-23T00:36:34;2.30;;;1.38;;
50267;SDS011;36153;50.960;6.220;2023-03-23T00:39:43;2.38;;;1.60;;
50267;SDS011;36153;50.960;6.220;2023-03-23T00:42:46;3.33;;;1.70;;
50267;SDS011;36153;50.960;6.220;2023-03-23T00:45:48;2.90;;;1.55;;
50267;SDS011;36153;50.960;6.220;2023-03-23T00:48:52;1.92;;;1.40;;
50267;SDS011;36153;50.960;6.220;2023-03-23T00:51:54;2.45;;;1.77;;
50267;SDS011;36153;50.960;6.220;2023-03-23T00:54:56;3.10;;;1.90;;
50267;SDS011;36153;50.960;6.220;2023-03-23T00:57:56;4.30;;;1.88;;
50267;SDS011;36153;50.960;6.220;2023-03-23T01:00:57;3.47;;;1.60;;
50267;SDS011;36153;50.960;6.220;2023-03-23T01:03:58;2.95;;;1.58;;
50267;SDS011;36153;50.960;6.220;2023-03-23T01:07:00;3.15;;;1.60;;
50267;SDS011;36153;50.960;6.220;2023-03-23T01:10:01;4.10;;;1.88;;
50267;SDS011;36153;50.960;6.220;2023-03-23T01:13:02;2.28;;;1.50;;
50267;SDS011;36153;50.960;6.220;2023-03-23T01:16:06;3.60;;;2.05;;
50267;SDS011;36153;50.960;6.220;2023-03-23T01:19:07;3.00;;;2.00;;
50267;SDS011;36153;50.960;6.220;2023-03-23T01:22:07;3.22;;;1.90;;
50267;SDS011;36153;50.960;6.220;2023-03-23T01:25:09;2.88;;;1.92;;
50267;SDS011;36153;50.960;6.220;2023-03-23T01:28:10;3.17;;;1.98;;
50267;SDS011;36153;50.960;6.220;2023-03-23T01:31:12;3.30;;;1.95;;
50267;SDS011;36153;50.960;6.220;2023-03-23T01:34:15;3.33;;;2.10;;
50267;SDS011;36153;50.960;6.220;2023-03-23T01:37:16;2.75;;;2.10;;
50267;SDS011;36153;50.960;6.220;2023-03-23T01:40:17;4.70;;;2.00;;
50267;SDS011;36153;50.960;6.220;2023-03-23T01:43:18;3.72;;;2.17;;
50267;SDS011;36153;50.960;6.220;2023-03-23T01:46:19;3.50;;;1.83;;
50267;SDS011;36153;50.960;6.220;2023-03-23T01:49:26;3.10;;;1.70;;
50267;SDS011;36153;50.960;6.220;2023-03-23T01:52:30;3.38;;;1.80;;
50267;SDS011;36153;50.960;6.220;2023-03-23T01:55:32;3.20;;;1.75;;
50267;SDS011;36153;50.960;6.220;2023-03-23T01:58:33;3.55;;;1.42;;
50267;SDS011;36153;50.960;6.220;2023-03-23T02:04:40;2.20;;;1.08;;
50267;SDS011;36153;50.960;6.220;2023-03-23T02:07:42;2.22;;;1.00;;
50267;SDS011;36153;50.960;6.220;2023-03-23T02:10:43;2.42;;;1.13;;
50267;SDS011;36153;50.960;6.220;2023-03-23T02:13:44;2.50;;;1.70;;
50267;SDS011;36153;50.960;6.220;2023-03-23T02:17:29;4.05;;;1.67;;
50267;SDS011;36153;50.960;6.220;2023-03-23T02:27:08;2.38;;;1.20;;
50267;SDS011;36153;50.960;6.220;2023-03-23T02:30:21;1.50;;;1.17;;
50267;SDS011;36153;50.960;6.220;2023-03-23T02:33:38;2.17;;;1.40;;
50267;SDS011;36153;50.960;6.220;2023-03-23T02:36:52;2.38;;;1.35;;
50267;SDS011;36153;50.960;6.220;2023-03-23T02:40:06;1.55;;;1.15;;
50267;SDS011;36153;50.960;6.220;2023-03-23T02:43:22;1.67;;;1.23;;
50267;SDS011;36153;50.960;6.220;2023-03-23T02:46:25;1.95;;;1.23;;
50267;SDS011;36153;50.960;6.220;2023-03-23T02:49:27;2.22;;;0.88;;
50267;SDS011;36153;50.960;6.220;2023-03-23T02:52:31;1.55;;;1.20;;
50267;SDS011;36153;50.960;6.220;2023-03-23T02:55:36;1.90;;;1.33;;
50267;SDS011;36153;50.960;6.220;2023-03-23T02:58:42;2.55;;;1.63;;
50267;SDS011;36153;50.960;6.220;2023-03-23T03:04:46;2.17;;;1.48;;
50267;SDS011;36153;50.960;6.220;2023-03-23T03:11:10;2.10;;;1.48;;
50267;SDS011;36153;50.960;6.220;2023-03-23T03:14:19;2.83;;;1.38;;
50267;SDS011;36153;50.960;6.220;2023-03-23T03:17:24;2.15;;;1.35;;
50267;SDS011;36153;50.960;6.220;2023-03-23T03:20:29;2.55;;;1.75;;
50267;SDS011;36153;50.960;6.220;2023-03-23T03:23:32;2.85;;;1.85;;
50267;SDS011;36153;50.960;6.220;2023-03-23T03:26:37;4.85;;;1.80;;
50267;SDS011;36153;50.960;6.220;2023-03-23T03:29:41;3.10;;;1.67;;
50267;SDS011;36153;50.960;6.220;2023-03-23T03:32:49;2.28;;;1.52;;
50267;SDS011;36153;50.960;6.220;2023-03-23T03:35:53;2.63;;;1.67;;
50267;SDS011;36153;50.960;6.220;2023-03-23T03:38:55;3.05;;;1.92;;
50267;SDS011;36153;50.960;6.220;2023-03-23T03:41:59;2.85;;;1.77;;
50267;SDS011;36153;50.960;6.220;2023-03-23T03:44:59;2.83;;;1.90;;
50267;SDS011;36153;50.960;6.220;2023-03-23T03:48:00;2.75;;;1.60;;
50267;SDS011;36153;50.960;6.220;2023-03-23T03:51:01;2.33;;;1.80;;
50267;SDS011;36153;50.960;6.220;2023-03-23T03:54:02;2.70;;;1.67;;
50267;SDS011;36153;50.960;6.220;2023-03-23T03:57:03;2.20;;;1.67;;
50267;SDS011;36153;50.960;6.220;2023-03-23T04:00:04;2.38;;;1.60;;
50267;SDS011;36153;50.960;6.220;2023-03-23T04:03:14;2.35;;;1.63;;
50267;SDS011;36153;50.960;6.220;2023-03-23T04:06:16;3.47;;;2.45;;
50267;SDS011;36153;50.960;6.220;2023-03-23T04:09:17;4.28;;;1.83;;
50267;SDS011;36153;50.960;6.220;2023-03-23T04:12:19;3.25;;;1.83;;
50267;SDS011;36153;50.960;6.220;2023-03-23T04:15:19;2.88;;;1.92;;
50267;SDS011;36153;50.960;6.220;2023-03-23T04:18:20;2.75;;;1.63;;
50267;SDS011;36153;50.960;6.220;2023-03-23T04:21:21;3.15;;;1.88;;
50267;SDS011;36153;50.960;6.220;2023-03-23T04:24:22;4.35;;;2.33;;
50267;SDS011;36153;50.960;6.220;2023-03-23T04:27:27;2.20;;;1.55;;
50267;SDS011;36153;50.960;6.220;2023-03-23T04:30:28;2.75;;;1.70;;
50267;SDS011;36153;50.960;6.220;2023-03-23T04:33:30;2.72;;;1.90;;
50267;SDS011;36153;50.960;6.220;2023-03-23T04:36:31;3.10;;;1.80;;
50267;SDS011;36153;50.960;6.220;2023-03-23T04:39:33;2.55;;;1.77;;
50267;SDS011;36153;50.960;6.220;2023-03-23T04:42:34;2.40;;;1.70;;
50267;SDS011;36153;50.960;6.220;2023-03-23T04:45:34;3.45;;;1.90;;
50267;SDS011;36153;50.960;6.220;2023-03-23T04:48:37;2.67;;;1.83;;
50267;SDS011;36153;50.960;6.220;2023-03-23T04:51:39;4.35;;;2.03;;
50267;SDS011;36153;50.960;6.220;2023-03-23T04:54:39;3.00;;;1.90;;
50267;SDS011;36153;50.960;6.220;2023-03-23T04:57:40;3.55;;;1.73;;
50267;SDS011;36153;50.960;6.220;2023-03-23T05:00:41;4.20;;;1.85;;
50267;SDS011;36153;50.960;6.220;2023-03-23T05:03:43;4.60;;;1.63;;
50267;SDS011;36153;50.960;6.220;2023-03-23T05:06:44;3.45;;;1.42;;
50267;SDS011;36153;50.960;6.220;2023-03-23T05:09:48;1.92;;;1.27;;
50267;SDS011;36153;50.960;6.220;2023-03-23T05:12:49;3.03;;;2.10;;
50267;SDS011;36153;50.960;6.220;2023-03-23T05:15:50;2.42;;;1.25;;
50267;SDS011;36153;50.960;6.220;2023-03-23T05:18:51;2.75;;;1.63;;
50267;SDS011;36153;50.960;6.220;2023-03-23T05:21:52;2.58;;;1.73;;
50267;SDS011;36153;50.960;6.220;2023-03-23T05:24:54;4.07;;;1.30;;
50267;SDS011;36153;50.960;6.220;2023-03-23T05:27:54;4.07;;;2.05;;
50267;SDS011;36153;50.960;6.220;2023-03-23T05:30:54;3.03;;;1.88;;
50267;SDS011;36153;50.960;6.220;2023-03-23T05:33:55;3.60;;;1.48;;
50267;SDS011;36153;50.960;6.220;2023-03-23T05:36:56;3.53;;;1.50;;
50267;SDS011;36153;50.960;6.220;2023-03-23T05:39:58;2.92;;;1.63;;
50267;SDS011;36153;50.960;6.220;2023-03-23T05:46:01;2.45;;;1.27;;
50267;SDS011;36153;50.960;6.220;2023-03-23T05:49:02;3.35;;;1.58;;
50267;SDS011;36153;50.960;6.220;2023-03-23T05:52:03;1.80;;;1.02;;
50267;SDS011;36153;50.960;6.220;2023-03-23T05:55:03;5.63;;;1.67;;
50267;SDS011;36153;50.960;6.220;2023-03-23T05:58:05;5.88;;;1.63;;
50267;SDS011;36153;50.960;6.220;2023-03-23T06:01:08;4.32;;;1.30;;
50267;SDS011;36153;50.960;6.220;2023-03-23T06:07:11;2.03;;;1.25;;
50267;SDS011;36153;50.960;6.220;2023-03-23T06:10:14;2.00;;;1.10;;
50267;SDS011;36153;50.960;6.220;2023-03-23T06:13:14;2.53;;;1.40;;
50267;SDS011;36153;50.960;6.220;2023-03-23T06:16:15;2.63;;;1.20;;
50267;SDS011;36153;50.960;6.220;2023-03-23T06:19:16;2.20;;;1.42;;
50267;SDS011;36153;50.960;6.220;2023-03-23T06:22:17;2.35;;;1.38;;
50267;SDS011;36153;50.960;6.220;2023-03-23T06:25:18;4.38;;;1.90;;
50267;SDS011;36153;50.960;6.220;2023-03-23T06:28:19;4.07;;;1.48;;
50267;SDS011;36153;50.960;6.220;2023-03-23T06:31:19;2.10;;;1.08;;
50267;SDS011;36153;50.960;6.220;2023-03-23T06:34:20;2.72;;;1.20;;
50267;SDS011;36153;50.960;6.220;2023-03-23T06:37:21;4.35;;;1.48;;
50267;SDS011;36153;50.960;6.220;2023-03-23T06:40:21;2.60;;;1.20;;
50267;SDS011;36153;50.960;6.220;2023-03-23T06:43:22;2.20;;;1.17;;
50267;SDS011;36153;50.960;6.220;2023-03-23T06:46:22;1.13;;;0.70;;
50267;SDS011;36153;50.960;6.220;2023-03-23T06:49:23;2.28;;;0.95;;
50267;SDS011;36153;50.960;6.220;2023-03-23T06:52:23;2.20;;;1.15;;
50267;SDS011;36153;50.960;6.220;2023-03-23T06:55:25;3.75;;;0.90;;
50267;SDS011;36153;50.960;6.220;2023-03-23T06:58:25;2.15;;;0.73;;
50267;SDS011;36153;50.960;6.220;2023-03-23T07:01:26;1.90;;;1.00;;
50267;SDS011;36153;50.960;6.220;2023-03-23T07:04:28;2.22;;;1.00;;
50267;SDS011;36153;50.960;6.220;2023-03-23T07:07:28;3.63;;;1.23;;
50267;SDS011;36153;50.960;6.220;2023-03-23T07:10:29;1.40;;;0.95;;
50267;SDS011;36153;50.960;6.220;2023-03-23T07:13:32;1.42;;;1.00;;
50267;SDS011;36153;50.960;6.220;2023-03-23T07:16:33;1.02;;;0.63;;
50267;SDS011;36153;50.960;6.220;2023-03-23T07:19:33;3.30;;;1.02;;
50267;SDS011;36153;50.960;6.220;2023-03-23T07:22:35;2.70;;;1.23;;
50267;SDS011;36153;50.960;6.220;2023-03-23T07:25:35;2.83;;;0.85;;
50267;SDS011;36153;50.960;6.220;2023-03-23T07:28:36;2.35;;;1.38;;
50267;SDS011;36153;50.960;6.220;2023-03-23T07:31:36;1.95;;;0.95;;
50267;SDS011;36153;50.960;6.220;2023-03-23T07:34:37;3.03;;;1.02;;
50267;SDS011;36153;50.960;6.220;2023-03-23T07:37:38;2.55;;;0.75;;
50267;SDS011;36153;50.960;6.220;2023-03-23T07:40:38;9.38;;;1.48;;
50267;SDS011;36153;50.960;6.220;2023-03-23T07:43:39;3.45;;;0.98;;
50267;SDS011;36153;50.960;6.220;2023-03-23T07:46:41;2.80;;;1.20;;
50267;SDS011;36153;50.960;6.220;2023-03-23T07:49:42;3.00;;;1.20;;
50267;SDS011;36153;50.960;6.220;2023-03-23T07:52:43;1.90;;;0.80;;
50267;SDS011;36153;50.960;6.220;2023-03-23T07:55:43;2.60;;;0.80;;
50267;SDS011;36153;50.960;6.220;2023-03-23T07:58:44;2.40;;;0.90;;
50267;SDS011;36153;50.960;6.220;2023-03-23T08:01:45;1.95;;;0.98;;
50267;SDS011;36153;50.960;6.220;2023-03-23T08:04:46;2.08;;;1.05;;
50267;SDS011;36153;50.960;6.220;2023-03-23T08:07:48;1.40;;;0.85;;
50267;SDS011;36153;50.960;6.220;2023-03-23T08:10:49;2.08;;;0.95;;
50267;SDS011;36153;50.960;6.220;2023-03-23T08:18:25;4.60;;;0.98;;
50267;SDS011;36153;50.960;6.220;2023-03-23T08:22:14;5.25;;;1.60;;
50267;SDS011;36153;50.960;6.220;2023-03-23T08:25:52;2.60;;;0.85;;
50267;SDS011;36153;50.960;6.220;2023-03-23T08:29:20;2.05;;;1.10;;
